sensor_id;sensor_type;location;lat;lon;timestamp;P1;durP1;ratioP1;P2;durP2;ratioP2
23676;SDS011;31493;49.058;12.190;2023-07-13T00:01:52;4.53;;;3.45;;
23676;SDS011;31493;49.058;12.190;2023-07-13T00:04:20;5.20;;;3.47;;
23676;SDS011;31493;49.058;12.190;2023-07-13T00:06:50;6.53;;;3.50;;
23676;SDS011;31493;49.058;12.190;2023-07-13T00:09:18;4.63;;;3.42;;
23676;SDS011;31493;49.058;12.190;2023-07-13T00:11:50;6.45;;;3.38;;
23676;SDS011;31493;49.058;12.190;2023-07-13T00:14:19;4.53;;;3.30;;
23676;SDS011;31493;49.058;12.190;2023-07-13T00:16:46;6.15;;;3.63;;
23676;SDS011;31493;49.058;12.190;2023-07-13T00:19:14;9.68;;;3.65;;
23676;SDS011;31493;49.058;12.190;2023-07-13T00:21:41;4.53;;;3.05;;
23676;SDS011;31493;49.058;12.190;2023-07-13T00:24:10;5.60;;;3.63;;
23676;SDS011;31493;49.058;12.190;2023-07-13T00:26:39;6.10;;;3.70;;
23676;SDS011;31493;49.058;12.190;2023-07-13T00:29:11;8.13;;;3.22;;
23676;SDS011;31493;49.058;12.190;2023-07-13T00:31:39;4.30;;;3.42;;
23676;SDS011;31493;49.058;12.190;2023-07-13T00:34:06;7.53;;;3.65;;
23676;SDS011;31493;49.058;12.190;2023-07-13T00:36:33;6.13;;;3.40;;
23676;SDS011;31493;49.058;12.190;2023-07-13T00:39:00;4.35;;;3.42;;
23676;SDS011;31493;49.058;12.190;2023-07-13T00:41:29;4.97;;;3.20;;
23676;SDS011;31493;49.058;12.190;2023-07-13T00:43:56;6.13;;;2.90;;
23676;SDS011;31493;49.058;12.190;2023-07-13T00:46:24;6.68;;;3.45;;
23676;SDS011;31493;49.058;12.190;2023-07-13T00:48:54;8.23;;;4.25;;
23676;SDS011;31493;49.058;12.190;2023-07-13T00:51:26;6.90;;;3.60;;
23676;SDS011;31493;49.058;12.190;2023-07-13T00:53:59;4.50;;;3.63;;
23676;SDS011;31493;49.058;12.190;2023-07-13T00:56:28;5.78;;;3.28;;
23676;SDS011;31493;49.058;12.190;2023-07-13T00:58:56;6.47;;;3.70;;
23676;SDS011;31493;49.058;12.190;2023-07-13T01:01:24;8.83;;;4.00;;
23676;SDS011;31493;49.058;12.190;2023-07-13T01:03:51;7.38;;;3.85;;
23676;SDS011;31493;49.058;12.190;2023-07-13T01:06:21;6.22;;;3.53;;
23676;SDS011;31493;49.058;12.190;2023-07-13T01:08:48;6.07;;;3.70;;
23676;SDS011;31493;49.058;12.190;2023-07-13T01:11:18;4.95;;;3.50;;
23676;SDS011;31493;49.058;12.190;2023-07-13T01:13:46;7.63;;;3.80;;
23676;SDS011;31493;49.058;12.190;2023-07-13T01:16:17;9.93;;;3.60;;
23676;SDS011;31493;49.058;12.190;2023-07-13T01:18:48;5.18;;;3.83;;
23676;SDS011;31493;49.058;12.190;2023-07-13T01:21:17;6.30;;;3.50;;
23676;SDS011;31493;49.058;12.190;2023-07-13T01:23:45;6.85;;;3.90;;
23676;SDS011;31493;49.058;12.190;2023-07-13T01:26:12;7.53;;;3.70;;
23676;SDS011;31493;49.058;12.190;2023-07-13T01:28:39;8.55;;;3.53;;
23676;SDS011;31493;49.058;12.190;2023-07-13T01:31:06;6.90;;;3.67;;
23676;SDS011;31493;49.058;12.190;2023-07-13T01:33:34;5.63;;;3.78;;
23676;SDS011;31493;49.058;12.190;2023-07-13T01:36:01;6.50;;;3.50;;
23676;SDS011;31493;49.058;12.190;2023-07-13T01:38:29;7.88;;;3.67;;
23676;SDS011;31493;49.058;12.190;2023-07-13T01:40:56;6.20;;;3.70;;
23676;SDS011;31493;49.058;12.190;2023-07-13T01:43:23;9.82;;;4.00;;
23676;SDS011;31493;49.058;12.190;2023-07-13T01:45:50;7.13;;;3.50;;
23676;SDS011;31493;49.058;12.190;2023-07-13T01:48:17;6.10;;;3.80;;
23676;SDS011;31493;49.058;12.190;2023-07-13T01:50:45;6.80;;;3.75;;
23676;SDS011;31493;49.058;12.190;2023-07-13T01:53:14;6.28;;;3.70;;
23676;SDS011;31493;49.058;12.190;2023-07-13T01:55:42;7.05;;;4.00;;
23676;SDS011;31493;49.058;12.190;2023-07-13T01:58:09;6.18;;;3.60;;
23676;SDS011;31493;49.058;12.190;2023-07-13T02:00:36;6.68;;;3.85;;
23676;SDS011;31493;49.058;12.190;2023-07-13T02:03:03;5.50;;;3.72;;
23676;SDS011;31493;49.058;12.190;2023-07-13T02:05:30;11.50;;;4.10;;
23676;SDS011;31493;49.058;12.190;2023-07-13T02:07:57;6.40;;;3.83;;
23676;SDS011;31493;49.058;12.190;2023-07-13T02:10:24;5.18;;;3.80;;
23676;SDS011;31493;49.058;12.190;2023-07-13T02:12:53;7.43;;;4.03;;
23676;SDS011;31493;49.058;12.190;2023-07-13T02:15:20;10.98;;;4.13;;
23676;SDS011;31493;49.058;12.190;2023-07-13T02:17:47;5.70;;;4.15;;
23676;SDS011;31493;49.058;12.190;2023-07-13T02:20:14;5.95;;;3.92;;
23676;SDS011;31493;49.058;12.190;2023-07-13T02:22:41;7.88;;;4.25;;
23676;SDS011;31493;49.058;12.190;2023-07-13T02:25:08;6.45;;;4.05;;
23676;SDS011;31493;49.058;12.190;2023-07-13T02:27:35;9.65;;;4.30;;
23676;SDS011;31493;49.058;12.190;2023-07-13T02:30:04;5.75;;;3.88;;
23676;SDS011;31493;49.058;12.190;2023-07-13T02:32:32;6.75;;;3.90;;
23676;SDS011;31493;49.058;12.190;2023-07-13T02:34:59;5.30;;;3.80;;
23676;SDS011;31493;49.058;12.190;2023-07-13T02:37:26;10.70;;;3.90;;
23676;SDS011;31493;49.058;12.190;2023-07-13T02:39:53;10.52;;;4.20;;
23676;SDS011;31493;49.058;12.190;2023-07-13T02:42:20;6.90;;;4.03;;
23676;SDS011;31493;49.058;12.190;2023-07-13T02:44:47;7.00;;;3.70;;
23676;SDS011;31493;49.058;12.190;2023-07-13T02:49:44;5.60;;;4.18;;
23676;SDS011;31493;49.058;12.190;2023-07-13T02:52:11;9.27;;;4.45;;
23676;SDS011;31493;49.058;12.190;2023-07-13T02:54:38;11.15;;;4.00;;
23676;SDS011;31493;49.058;12.190;2023-07-13T02:57:05;9.52;;;4.20;;
23676;SDS011;31493;49.058;12.190;2023-07-13T02:59:33;9.75;;;4.38;;
23676;SDS011;31493;49.058;12.190;2023-07-13T03:02:00;6.32;;;4.10;;
23676;SDS011;31493;49.058;12.190;2023-07-13T03:04:29;5.63;;;4.30;;
23676;SDS011;31493;49.058;12.190;2023-07-13T03:06:56;8.20;;;4.03;;
23676;SDS011;31493;49.058;12.190;2023-07-13T03:09:23;7.50;;;4.03;;
23676;SDS011;31493;49.058;12.190;2023-07-13T03:11:52;6.93;;;4.10;;
23676;SDS011;31493;49.058;12.190;2023-07-13T03:14:19;8.25;;;4.22;;
23676;SDS011;31493;49.058;12.190;2023-07-13T03:16:47;10.27;;;4.18;;
23676;SDS011;31493;49.058;12.190;2023-07-13T03:19:14;7.97;;;3.78;;
23676;SDS011;31493;49.058;12.190;2023-07-13T03:21:42;7.15;;;4.22;;
23676;SDS011;31493;49.058;12.190;2023-07-13T03:24:09;8.82;;;4.00;;
23676;SDS011;31493;49.058;12.190;2023-07-13T03:26:36;6.22;;;3.80;;
23676;SDS011;31493;49.058;12.190;2023-07-13T03:29:03;6.57;;;4.47;;
23676;SDS011;31493;49.058;12.190;2023-07-13T03:31:33;7.35;;;4.25;;
23676;SDS011;31493;49.058;12.190;2023-07-13T03:34:01;10.80;;;4.07;;
23676;SDS011;31493;49.058;12.190;2023-07-13T03:36:29;6.65;;;3.83;;
23676;SDS011;31493;49.058;12.190;2023-07-13T03:39:00;8.88;;;4.60;;
23676;SDS011;31493;49.058;12.190;2023-07-13T03:41:28;7.65;;;4.50;;
23676;SDS011;31493;49.058;12.190;2023-07-13T03:43:56;8.20;;;4.40;;
23676;SDS011;31493;49.058;12.190;2023-07-13T03:46:23;5.53;;;4.82;;
23676;SDS011;31493;49.058;12.190;2023-07-13T03:48:50;8.90;;;4.63;;
23676;SDS011;31493;49.058;12.190;2023-07-13T03:51:17;10.75;;;5.10;;
23676;SDS011;31493;49.058;12.190;2023-07-13T03:53:46;6.75;;;4.25;;
23676;SDS011;31493;49.058;12.190;2023-07-13T03:56:15;12.43;;;5.10;;
23676;SDS011;31493;49.058;12.190;2023-07-13T03:58:44;9.68;;;4.43;;
23676;SDS011;31493;49.058;12.190;2023-07-13T04:01:12;10.20;;;5.00;;
23676;SDS011;31493;49.058;12.190;2023-07-13T04:03:40;15.05;;;4.88;;
23676;SDS011;31493;49.058;12.190;2023-07-13T04:06:08;8.60;;;4.57;;
23676;SDS011;31493;49.058;12.190;2023-07-13T04:11:15;14.38;;;4.70;;
23676;SDS011;31493;49.058;12.190;2023-07-13T04:13:43;14.95;;;4.70;;
23676;SDS011;31493;49.058;12.190;2023-07-13T04:16:10;9.60;;;4.57;;
23676;SDS011;31493;49.058;12.190;2023-07-13T04:18:37;10.60;;;4.85;;
23676;SDS011;31493;49.058;12.190;2023-07-13T04:21:04;7.05;;;4.03;;
23676;SDS011;31493;49.058;12.190;2023-07-13T04:23:31;11.43;;;4.40;;
23676;SDS011;31493;49.058;12.190;2023-07-13T04:25:58;8.55;;;4.00;;
23676;SDS011;31493;49.058;12.190;2023-07-13T04:28:27;6.63;;;3.88;;
23676;SDS011;31493;49.058;12.190;2023-07-13T04:30:54;8.23;;;4.85;;
23676;SDS011;31493;49.058;12.190;2023-07-13T04:33:21;11.20;;;4.18;;
23676;SDS011;31493;49.058;12.190;2023-07-13T04:35:49;6.72;;;4.20;;
23676;SDS011;31493;49.058;12.190;2023-07-13T04:38:21;6.22;;;3.88;;
23676;SDS011;31493;49.058;12.190;2023-07-13T04:40:50;13.10;;;4.50;;
23676;SDS011;31493;49.058;12.190;2023-07-13T04:43:17;8.80;;;3.88;;
23676;SDS011;31493;49.058;12.190;2023-07-13T04:45:46;10.70;;;4.05;;
23676;SDS011;31493;49.058;12.190;2023-07-13T04:48:13;10.98;;;4.22;;
23676;SDS011;31493;49.058;12.190;2023-07-13T04:50:40;10.85;;;4.10;;
23676;SDS011;31493;49.058;12.190;2023-07-13T04:53:09;9.70;;;4.28;;
23676;SDS011;31493;49.058;12.190;2023-07-13T04:55:36;9.48;;;3.88;;
23676;SDS011;31493;49.058;12.190;2023-07-13T04:58:04;9.02;;;3.92;;
23676;SDS011;31493;49.058;12.190;2023-07-13T05:00:31;12.10;;;4.53;;
23676;SDS011;31493;49.058;12.190;2023-07-13T05:02:59;13.48;;;4.18;;
23676;SDS011;31493;49.058;12.190;2023-07-13T05:05:27;8.73;;;4.05;;
23676;SDS011;31493;49.058;12.190;2023-07-13T05:07:54;11.05;;;4.07;;
23676;SDS011;31493;49.058;12.190;2023-07-13T05:10:21;9.30;;;3.83;;
23676;SDS011;31493;49.058;12.190;2023-07-13T05:12:49;8.20;;;3.40;;
23676;SDS011;31493;49.058;12.190;2023-07-13T05:15:16;8.45;;;3.47;;
23676;SDS011;31493;49.058;12.190;2023-07-13T05:17:46;9.35;;;3.60;;
23676;SDS011;31493;49.058;12.190;2023-07-13T05:20:15;8.55;;;3.72;;
23676;SDS011;31493;49.058;12.190;2023-07-13T05:22:43;7.95;;;3.40;;
23676;SDS011;31493;49.058;12.190;2023-07-13T05:25:12;9.18;;;3.30;;
23676;SDS011;31493;49.058;12.190;2023-07-13T05:27:39;9.82;;;3.20;;
23676;SDS011;31493;49.058;12.190;2023-07-13T05:30:07;9.02;;;3.25;;
23676;SDS011;31493;49.058;12.190;2023-07-13T05:32:36;9.02;;;3.17;;
23676;SDS011;31493;49.058;12.190;2023-07-13T05:35:03;10.00;;;3.22;;
23676;SDS011;31493;49.058;12.190;2023-07-13T05:37:32;7.15;;;2.83;;
23676;SDS011;31493;49.058;12.190;2023-07-13T05:39:59;7.70;;;3.30;;
23676;SDS011;31493;49.058;12.190;2023-07-13T05:42:26;6.07;;;2.72;;
23676;SDS011;31493;49.058;12.190;2023-07-13T05:44:53;7.95;;;2.97;;
23676;SDS011;31493;49.058;12.190;2023-07-13T05:47:21;7.55;;;2.90;;
23676;SDS011;31493;49.058;12.190;2023-07-13T05:49:48;7.85;;;2.85;;
23676;SDS011;31493;49.058;12.190;2023-07-13T05:52:15;5.47;;;2.60;;
23676;SDS011;31493;49.058;12.190;2023-07-13T05:54:43;5.82;;;2.63;;
23676;SDS011;31493;49.058;12.190;2023-07-13T05:57:10;8.55;;;2.70;;
23676;SDS011;31493;49.058;12.190;2023-07-13T05:59:37;6.35;;;2.90;;
23676;SDS011;31493;49.058;12.190;2023-07-13T06:02:04;7.50;;;2.42;;
23676;SDS011;31493;49.058;12.190;2023-07-13T06:04:32;7.22;;;2.58;;
23676;SDS011;31493;49.058;12.190;2023-07-13T06:06:59;5.22;;;2.50;;
23676;SDS011;31493;49.058;12.190;2023-07-13T06:09:26;5.10;;;2.42;;
23676;SDS011;31493;49.058;12.190;2023-07-13T06:11:54;6.93;;;2.38;;
23676;SDS011;31493;49.058;12.190;2023-07-13T06:14:21;8.38;;;2.50;;
23676;SDS011;31493;49.058;12.190;2023-07-13T06:16:48;9.80;;;2.45;;
23676;SDS011;31493;49.058;12.190;2023-07-13T06:19:15;4.85;;;2.35;;
23676;SDS011;31493;49.058;12.190;2023-07-13T06:21:42;4.80;;;2.20;;
23676;SDS011;31493;49.058;12.190;2023-07-13T06:24:09;6.90;;;2.45;;
23676;SDS011;31493;49.058;12.190;2023-07-13T06:26:36;6.65;;;2.63;;
23676;SDS011;31493;49.058;12.190;2023-07-13T06:29:05;6.97;;;2.55;;
23676;SDS011;31493;49.058;12.190;2023-07-13T06:31:32;12.30;;;2.28;;
23676;SDS011;31493;49.058;12.190;2023-07-13T06:33:59;6.70;;;2.28;;
23676;SDS011;31493;49.058;12.190;2023-07-13T06:36:26;6.30;;;2.38;;
23676;SDS011;31493;49.058;12.190;2023-07-13T06:38:53;7.78;;;2.33;;
23676;SDS011;31493;49.058;12.190;2023-07-13T06:41:20;5.38;;;2.30;;
23676;SDS011;31493;49.058;12.190;2023-07-13T06:43:48;2.92;;;1.95;;
23676;SDS011;31493;49.058;12.190;2023-07-13T06:46:16;3.58;;;2.05;;
23676;SDS011;31493;49.058;12.190;2023-07-13T06:48:43;5.35;;;2.10;;
23676;SDS011;31493;49.058;12.190;2023-07-13T06:51:10;9.50;;;2.40;;
23676;SDS011;31493;49.058;12.190;2023-07-13T06:53:37;4.72;;;2.25;;
23676;SDS011;31493;49.058;12.190;2023-07-13T06:56:04;10.35;;;2.20;;
23676;SDS011;31493;49.058;12.190;2023-07-13T06:58:33;6.70;;;2.30;;
23676;SDS011;31493;49.058;12.190;2023-07-13T07:03:28;5.30;;;2.17;;
23676;SDS011;31493;49.058;12.190;2023-07-13T07:05:59;10.75;;;2.38;;
23676;SDS011;31493;49.058;12.190;2023-07-13T07:08:27;6.45;;;1.90;;
23676;SDS011;31493;49.058;12.190;2023-07-13T07:10:54;9.52;;;2.20;;
23676;SDS011;31493;49.058;12.190;2023-07-13T07:13:21;5.22;;;2.10;;
23676;SDS011;31493;49.058;12.190;2023-07-13T07:15:49;7.72;;;2.20;;
23676;SDS011;31493;49.058;12.190;2023-07-13T07:18:17;5.35;;;1.70;;
23676;SDS011;31493;49.058;12.190;2023-07-13T07:20:45;5.55;;;1.85;;
23676;SDS011;31493;49.058;12.190;2023-07-13T07:23:12;6.30;;;2.05;;
23676;SDS011;31493;49.058;12.190;2023-07-13T07:25:40;4.90;;;1.75;;
23676;SDS011;31493;49.058;12.190;2023-07-13T07:28:09;8.45;;;1.95;;
23676;SDS011;31493;49.058;12.190;2023-07-13T07:30:36;7.78;;;1.83;;
23676;SDS011;31493;49.058;12.190;2023-07-13T07:33:03;5.35;;;1.83;;
23676;SDS011;31493;49.058;12.190;2023-07-13T07:35:30;3.42;;;1.60;;
23676;SDS011;31493;49.058;12.190;2023-07-13T07:37:58;6.18;;;2.20;;
23676;SDS011;31493;49.058;12.190;2023-07-13T07:40:26;6.68;;;1.85;;
23676;SDS011;31493;49.058;12.190;2023-07-13T07:42:53;3.58;;;1.63;;
23676;SDS011;31493;49.058;12.190;2023-07-13T07:45:20;5.28;;;1.92;;
23676;SDS011;31493;49.058;12.190;2023-07-13T07:47:47;6.07;;;1.80;;
23676;SDS011;31493;49.058;12.190;2023-07-13T07:50:14;9.57;;;1.90;;
23676;SDS011;31493;49.058;12.190;2023-07-13T07:52:41;3.58;;;1.70;;
23676;SDS011;31493;49.058;12.190;2023-07-13T07:55:11;6.13;;;2.10;;
23676;SDS011;31493;49.058;12.190;2023-07-13T07:57:38;5.22;;;1.80;;
23676;SDS011;31493;49.058;12.190;2023-07-13T08:00:05;9.02;;;2.15;;
23676;SDS011;31493;49.058;12.190;2023-07-13T08:02:33;3.53;;;1.83;;
23676;SDS011;31493;49.058;12.190;2023-07-13T08:05:00;6.32;;;1.75;;
23676;SDS011;31493;49.058;12.190;2023-07-13T08:07:27;6.53;;;1.75;;
23676;SDS011;31493;49.058;12.190;2023-07-13T08:12:24;8.25;;;1.70;;
23676;SDS011;31493;49.058;12.190;2023-07-13T08:14:52;3.78;;;1.60;;
23676;SDS011;31493;49.058;12.190;2023-07-13T08:17:22;4.45;;;1.85;;
23676;SDS011;31493;49.058;12.190;2023-07-13T08:19:50;4.82;;;1.50;;
23676;SDS011;31493;49.058;12.190;2023-07-13T08:22:17;6.00;;;1.80;;
23676;SDS011;31493;49.058;12.190;2023-07-13T08:24:44;4.28;;;1.52;;
23676;SDS011;31493;49.058;12.190;2023-07-13T08:27:12;8.32;;;1.60;;
23676;SDS011;31493;49.058;12.190;2023-07-13T08:29:41;3.78;;;1.52;;
23676;SDS011;31493;49.058;12.190;2023-07-13T08:32:08;6.28;;;1.40;;
23676;SDS011;31493;49.058;12.190;2023-07-13T08:34:36;6.22;;;1.77;;
23676;SDS011;31493;49.058;12.190;2023-07-13T08:37:03;4.03;;;1.30;;
23676;SDS011;31493;49.058;12.190;2023-07-13T08:39:31;3.90;;;1.58;;
23676;SDS011;31493;49.058;12.190;2023-07-13T08:41:59;6.85;;;1.60;;
23676;SDS011;31493;49.058;12.190;2023-07-13T08:44:30;3.80;;;1.40;;
23676;SDS011;31493;49.058;12.190;2023-07-13T08:47:07;6.32;;;1.60;;
23676;SDS011;31493;49.058;12.190;2023-07-13T08:49:38;6.65;;;1.67;;
23676;SDS011;31493;49.058;12.190;2023-07-13T08:52:08;4.82;;;1.60;;
23676;SDS011;31493;49.058;12.190;2023-07-13T08:54:40;9.45;;;1.60;;
23676;SDS011;31493;49.058;12.190;2023-07-13T08:57:12;5.88;;;1.58;;
23676;SDS011;31493;49.058;12.190;2023-07-13T08:59:40;6.72;;;1.38;;
23676;SDS011;31493;49.058;12.190;2023-07-13T09:02:20;3.78;;;1.52;;
23676;SDS011;31493;49.058;12.190;2023-07-13T09:04:54;3.22;;;1.40;;
23676;SDS011;31493;49.058;12.190;2023-07-13T09:07:28;6.22;;;1.73;;
23676;SDS011;31493;49.058;12.190;2023-07-13T09:10:05;4.28;;;1.58;;
23676;SDS011;31493;49.058;12.190;2023-07-13T09:12:44;6.35;;;1.52;;
23676;SDS011;31493;49.058;12.190;2023-07-13T09:15:21;4.03;;;1.60;;
23676;SDS011;31493;49.058;12.190;2023-07-13T09:17:54;12.88;;;1.80;;
23676;SDS011;31493;49.058;12.190;2023-07-13T09:20:25;3.88;;;1.40;;
23676;SDS011;31493;49.058;12.190;2023-07-13T09:22:55;4.90;;;1.50;;
23676;SDS011;31493;49.058;12.190;2023-07-13T09:27:56;4.72;;;1.67;;
23676;SDS011;31493;49.058;12.190;2023-07-13T09:30:30;7.80;;;1.33;;
23676;SDS011;31493;49.058;12.190;2023-07-13T09:33:05;4.28;;;1.90;;
23676;SDS011;31493;49.058;12.190;2023-07-13T09:35:34;3.50;;;1.60;;
23676;SDS011;31493;49.058;12.190;2023-07-13T09:38:03;6.00;;;1.85;;
23676;SDS011;31493;49.058;12.190;2023-07-13T09:40:40;5.25;;;1.90;;
23676;SDS011;31493;49.058;12.190;2023-07-13T09:43:19;4.50;;;1.50;;
23676;SDS011;31493;49.058;12.190;2023-07-13T09:45:47;3.45;;;1.30;;
23676;SDS011;31493;49.058;12.190;2023-07-13T09:48:16;3.10;;;1.40;;
23676;SDS011;31493;49.058;12.190;2023-07-13T09:50:44;2.40;;;1.30;;
23676;SDS011;31493;49.058;12.190;2023-07-13T09:53:12;4.78;;;1.40;;
23676;SDS011;31493;49.058;12.190;2023-07-13T09:55:40;2.78;;;1.25;;
23676;SDS011;31493;49.058;12.190;2023-07-13T10:00:37;2.88;;;1.33;;
23676;SDS011;31493;49.058;12.190;2023-07-13T10:03:09;5.78;;;1.45;;
23676;SDS011;31493;49.058;12.190;2023-07-13T10:05:44;3.33;;;1.40;;
23676;SDS011;31493;49.058;12.190;2023-07-13T10:08:24;5.78;;;1.20;;
23676;SDS011;31493;49.058;12.190;2023-07-13T10:10:54;3.92;;;1.48;;
23676;SDS011;31493;49.058;12.190;2023-07-13T10:13:26;5.90;;;1.25;;
23676;SDS011;31493;49.058;12.190;2023-07-13T10:15:57;6.90;;;1.33;;
23676;SDS011;31493;49.058;12.190;2023-07-13T10:18:26;3.60;;;1.15;;
23676;SDS011;31493;49.058;12.190;2023-07-13T10:20:58;4.72;;;1.50;;
23676;SDS011;31493;49.058;12.190;2023-07-13T10:23:37;3.53;;;1.40;;
23676;SDS011;31493;49.058;12.190;2023-07-13T10:26:05;3.50;;;1.27;;
23676;SDS011;31493;49.058;12.190;2023-07-13T10:28:39;8.10;;;1.50;;
23676;SDS011;31493;49.058;12.190;2023-07-13T10:31:10;2.95;;;1.30;;
23676;SDS011;31493;49.058;12.190;2023-07-13T10:33:41;6.55;;;1.40;;
23676;SDS011;31493;49.058;12.190;2023-07-13T10:36:12;3.13;;;1.40;;
23676;SDS011;31493;49.058;12.190;2023-07-13T10:38:44;5.13;;;1.60;;
23676;SDS011;31493;49.058;12.190;2023-07-13T10:41:15;4.28;;;1.40;;
23676;SDS011;31493;49.058;12.190;2023-07-13T10:43:45;2.30;;;1.25;;
23676;SDS011;31493;49.058;12.190;2023-07-13T10:46:16;3.80;;;1.40;;
23676;SDS011;31493;49.058;12.190;2023-07-13T10:48:48;4.05;;;1.50;;
23676;SDS011;31493;49.058;12.190;2023-07-13T10:51:19;2.45;;;1.25;;
23676;SDS011;31493;49.058;12.190;2023-07-13T10:53:47;7.20;;;1.60;;
23676;SDS011;31493;49.058;12.190;2023-07-13T10:56:36;2.42;;;1.00;;
23676;SDS011;31493;49.058;12.190;2023-07-13T10:59:09;6.18;;;1.33;;
23676;SDS011;31493;49.058;12.190;2023-07-13T11:01:39;7.90;;;1.50;;
23676;SDS011;31493;49.058;12.190;2023-07-13T11:04:14;3.75;;;1.20;;
23676;SDS011;31493;49.058;12.190;2023-07-13T11:06:42;5.13;;;1.55;;
23676;SDS011;31493;49.058;12.190;2023-07-13T11:11:45;2.40;;;1.20;;
23676;SDS011;31493;49.058;12.190;2023-07-13T11:14:30;2.65;;;1.27;;
23676;SDS011;31493;49.058;12.190;2023-07-13T11:20:21;3.88;;;1.30;;
23676;SDS011;31493;49.058;12.190;2023-07-13T11:23:07;2.22;;;1.10;;
23676;SDS011;31493;49.058;12.190;2023-07-13T11:25:45;9.55;;;1.50;;
23676;SDS011;31493;49.058;12.190;2023-07-13T11:30:45;2.65;;;1.20;;
23676;SDS011;31493;49.058;12.190;2023-07-13T11:33:15;5.40;;;1.40;;
23676;SDS011;31493;49.058;12.190;2023-07-13T11:35:50;5.00;;;1.10;;
23676;SDS011;31493;49.058;12.190;2023-07-13T11:38:20;2.90;;;1.27;;
23676;SDS011;31493;49.058;12.190;2023-07-13T11:40:50;4.80;;;1.60;;
23676;SDS011;31493;49.058;12.190;2023-07-13T11:43:20;2.97;;;1.20;;
23676;SDS011;31493;49.058;12.190;2023-07-13T11:45:49;4.28;;;1.27;;
23676;SDS011;31493;49.058;12.190;2023-07-13T11:48:17;3.47;;;1.20;;
23676;SDS011;31493;49.058;12.190;2023-07-13T11:50:53;4.20;;;1.40;;
23676;SDS011;31493;49.058;12.190;2023-07-13T11:53:26;6.03;;;1.27;;
23676;SDS011;31493;49.058;12.190;2023-07-13T11:55:55;6.63;;;1.40;;
23676;SDS011;31493;49.058;12.190;2023-07-13T11:58:24;2.78;;;1.20;;
23676;SDS011;31493;49.058;12.190;2023-07-13T12:00:55;5.63;;;1.55;;
23676;SDS011;31493;49.058;12.190;2023-07-13T12:03:27;3.70;;;1.02;;
23676;SDS011;31493;49.058;12.190;2023-07-13T12:06:00;3.90;;;1.20;;
23676;SDS011;31493;49.058;12.190;2023-07-13T12:08:31;5.45;;;1.17;;
23676;SDS011;31493;49.058;12.190;2023-07-13T12:11:09;8.93;;;1.30;;
23676;SDS011;31493;49.058;12.190;2023-07-13T12:13:43;4.25;;;1.20;;
23676;SDS011;31493;49.058;12.190;2023-07-13T12:16:12;5.50;;;1.23;;
23676;SDS011;31493;49.058;12.190;2023-07-13T12:18:42;4.85;;;1.30;;
23676;SDS011;31493;49.058;12.190;2023-07-13T12:21:14;3.67;;;1.20;;
23676;SDS011;31493;49.058;12.190;2023-07-13T12:23:47;3.92;;;1.40;;
23676;SDS011;31493;49.058;12.190;2023-07-13T12:26:16;3.28;;;1.10;;
23676;SDS011;31493;49.058;12.190;2023-07-13T12:28:46;3.85;;;1.08;;
23676;SDS011;31493;49.058;12.190;2023-07-13T12:31:22;2.88;;;1.20;;
23676;SDS011;31493;49.058;12.190;2023-07-13T12:33:59;5.63;;;1.20;;
23676;SDS011;31493;49.058;12.190;2023-07-13T12:36:33;4.30;;;1.10;;
23676;SDS011;31493;49.058;12.190;2023-07-13T12:39:04;3.58;;;1.10;;
23676;SDS011;31493;49.058;12.190;2023-07-13T12:41:39;3.45;;;1.10;;
23676;SDS011;31493;49.058;12.190;2023-07-13T12:44:09;5.77;;;1.43;;
23676;SDS011;31493;49.058;12.190;2023-07-13T12:46:38;1.63;;;1.00;;
23676;SDS011;31493;49.058;12.190;2023-07-13T12:49:07;6.57;;;1.70;;
23676;SDS011;31493;49.058;12.190;2023-07-13T12:51:36;3.60;;;1.30;;
23676;SDS011;31493;49.058;12.190;2023-07-13T12:54:11;5.63;;;0.95;;
23676;SDS011;31493;49.058;12.190;2023-07-13T12:56:42;4.50;;;1.27;;
23676;SDS011;31493;49.058;12.190;2023-07-13T12:59:14;4.60;;;1.10;;
23676;SDS011;31493;49.058;12.190;2023-07-13T13:01:45;4.50;;;1.10;;
23676;SDS011;31493;49.058;12.190;2023-07-13T13:04:12;3.10;;;1.00;;
23676;SDS011;31493;49.058;12.190;2023-07-13T13:06:41;4.13;;;1.20;;
23676;SDS011;31493;49.058;12.190;2023-07-13T13:09:09;3.13;;;1.10;;
23676;SDS011;31493;49.058;12.190;2023-07-13T13:11:38;3.25;;;1.20;;
23676;SDS011;31493;49.058;12.190;2023-07-13T13:14:06;4.40;;;1.40;;
23676;SDS011;31493;49.058;12.190;2023-07-13T13:16:34;6.88;;;1.25;;
23676;SDS011;31493;49.058;12.190;2023-07-13T13:19:10;5.05;;;1.58;;
23676;SDS011;31493;49.058;12.190;2023-07-13T13:21:39;4.28;;;1.10;;
23676;SDS011;31493;49.058;12.190;2023-07-13T13:24:11;3.20;;;1.20;;
23676;SDS011;31493;49.058;12.190;2023-07-13T13:26:41;5.45;;;1.10;;
23676;SDS011;31493;49.058;12.190;2023-07-13T13:29:11;3.08;;;1.20;;
23676;SDS011;31493;49.058;12.190;2023-07-13T13:31:40;7.55;;;1.13;;
23676;SDS011;31493;49.058;12.190;2023-07-13T13:34:09;2.08;;;1.00;;
23676;SDS011;31493;49.058;12.190;2023-07-13T13:36:37;3.55;;;1.27;;
23676;SDS011;31493;49.058;12.190;2023-07-13T13:39:07;5.57;;;1.27;;
23676;SDS011;31493;49.058;12.190;2023-07-13T13:41:46;2.40;;;1.10;;
23676;SDS011;31493;49.058;12.190;2023-07-13T13:44:13;3.05;;;1.40;;
23676;SDS011;31493;49.058;12.190;2023-07-13T13:46:42;3.67;;;1.20;;
23676;SDS011;31493;49.058;12.190;2023-07-13T13:49:12;4.07;;;1.30;;
23676;SDS011;31493;49.058;12.190;2023-07-13T13:51:43;3.05;;;1.15;;
23676;SDS011;31493;49.058;12.190;2023-07-13T13:54:12;3.22;;;1.25;;
23676;SDS011;31493;49.058;12.190;2023-07-13T13:56:43;3.63;;;1.20;;
23676;SDS011;31493;49.058;12.190;2023-07-13T13:59:11;5.03;;;1.20;;
23676;SDS011;31493;49.058;12.190;2023-07-13T14:01:38;2.35;;;1.08;;
23676;SDS011;31493;49.058;12.190;2023-07-13T14:04:06;3.80;;;1.10;;
23676;SDS011;31493;49.058;12.190;2023-07-13T14:06:35;4.38;;;1.33;;
23676;SDS011;31493;49.058;12.190;2023-07-13T14:09:02;3.67;;;1.10;;
23676;SDS011;31493;49.058;12.190;2023-07-13T14:11:30;3.80;;;1.25;;
23676;SDS011;31493;49.058;12.190;2023-07-13T14:14:00;2.90;;;1.25;;
23676;SDS011;31493;49.058;12.190;2023-07-13T14:16:30;3.20;;;1.35;;
23676;SDS011;31493;49.058;12.190;2023-07-13T14:18:59;3.90;;;1.00;;
23676;SDS011;31493;49.058;12.190;2023-07-13T14:21:28;3.25;;;1.17;;
23676;SDS011;31493;49.058;12.190;2023-07-13T14:23:56;3.95;;;1.00;;
23676;SDS011;31493;49.058;12.190;2023-07-13T14:26:24;2.77;;;1.30;;
23676;SDS011;31493;49.058;12.190;2023-07-13T14:28:53;1.75;;;1.23;;
23676;SDS011;31493;49.058;12.190;2023-07-13T14:31:23;4.00;;;1.25;;
23676;SDS011;31493;49.058;12.190;2023-07-13T14:33:51;4.10;;;1.15;;
23676;SDS011;31493;49.058;12.190;2023-07-13T14:36:25;1.90;;;0.93;;
23676;SDS011;31493;49.058;12.190;2023-07-13T14:38:56;2.35;;;1.20;;
23676;SDS011;31493;49.058;12.190;2023-07-13T14:41:24;3.88;;;1.20;;
23676;SDS011;31493;49.058;12.190;2023-07-13T14:43:51;6.10;;;1.30;;
23676;SDS011;31493;49.058;12.190;2023-07-13T14:46:24;2.63;;;1.10;;
23676;SDS011;31493;49.058;12.190;2023-07-13T14:48:58;2.15;;;1.15;;
23676;SDS011;31493;49.058;12.190;2023-07-13T14:51:29;5.50;;;1.42;;
23676;SDS011;31493;49.058;12.190;2023-07-13T14:53:57;2.80;;;1.20;;
23676;SDS011;31493;49.058;12.190;2023-07-13T14:56:24;4.05;;;1.25;;
23676;SDS011;31493;49.058;12.190;2023-07-13T14:58:51;3.33;;;1.25;;
23676;SDS011;31493;49.058;12.190;2023-07-13T15:01:19;3.00;;;1.10;;
23676;SDS011;31493;49.058;12.190;2023-07-13T15:06:18;3.33;;;1.23;;
23676;SDS011;31493;49.058;12.190;2023-07-13T15:08:45;4.50;;;1.33;;
23676;SDS011;31493;49.058;12.190;2023-07-13T15:11:15;2.83;;;1.15;;